Time,TemperatureF,DewpointF,PressureIn,WindDirection,WindDirectionDegrees,WindSpeedMPH,WindSpeedGustMPH,Humidity,HourlyPrecipIn,Conditions,Clouds,dailyrainin,SoftwareType,DateUTC
2013-03-22 00:00:00,26.4,15.9,29.95,NW,315,0.0,0.0,64,0.00,CLR,SKC,0.00,WeatherDisplay:10.37,2013-03-22 04:00:00,
2013-03-22 00:01:00,26.4,15.9,29.95,NW,315,0.1,0.0,64,0.00,CLR,SKC,0.00,WeatherDisplay:10.37,2013-03-22 04:01:00,
2013-03-22 00:02:00,26.4,15.9,29.95,NW,315,1.8,2.3,64,0.00,CLR,SKC,0.00,WeatherDisplay:10.37,2013-03-22 04:02:00,
2013-03-22 00:07:00,26.4,15.9,29.95,NW,315,1.4,3.5,64,0.00,CLR,SKC,0.00,WeatherDisplay:10.37,2013-03-22 04:07:00,
2013-03-22 00:12:00,26.4,15.9,29.95,NW,315,1.4,2.3,64,0.00,CLR,SKC,0.00,WeatherDisplay:10.37,2013-03-22 04:12:00,
2013-03-22 00:17:00,26.2,15.7,29.95,NW,315,1.3,1.3,64,0.00,CLR,SKC,0.00,WeatherDisplay:10.37,2013-03-22 04:17:00,
2013-03-22 00:22:00,26.1,15.5,29.96,NW,315,0.4,1.1,64,0.00,CLR,SKC,0.00,WeatherDisplay:10.37,2013-03-22 04:22:00,
2013-03-22 00:27:00,25.9,15.4,29.96,NW,315,0.3,1.1,64,0.00,CLR,SKC,0.00,WeatherDisplay:10.37,2013-03-22 04:27:00,
2013-03-22 00:32:00,25.7,15.6,29.95,NW,315,1.1,2.3,65,0.00,CLR,SKC,0.00,WeatherDisplay:10.37,2013-03-22 04:32:00,
2013-03-22 00:37:00,25.5,15.4,29.96,NW,315,1.3,2.3,65,0.00,CLR,SKC,0.00,WeatherDisplay:10.37,2013-03-22 04:37:00,
2013-03-22 00:42:00,25.3,15.2,29.96,NW,315,1.8,3.5,65,0.00,CLR,SKC,0.00,WeatherDisplay:10.37,2013-03-22 04:42:00,
2013-03-22 00:47:00,25.3,15.6,29.96,NW,315,1.8,3.5,66,0.00,CLR,SKC,0.00,WeatherDisplay:10.37,2013-03-22 04:47:00,
2013-03-22 00:52:00,25.2,15.4,29.96,NW,315,1.1,3.5,66,0.00,CLR,SKC,0.00,WeatherDisplay:10.37,2013-03-22 04:52:00,
2013-03-22 00:57:00,25.2,15.4,29.96,NW,315,0.4,2.3,66,0.00,CLR,SKC,0.00,WeatherDisplay:10.37,2013-03-22 04:57:00,
2013-03-22 01:02:00,25.2,15.4,29.96,NW,315,0.9,1.1,66,0.00,CLR,SKC,0.00,WeatherDisplay:10.37,2013-03-22 05:02:00,
2013-03-22 01:07:00,25.0,15.6,29.96,NW,315,0.0,1.1,67,0.00,CLR,SKC,0.00,WeatherDisplay:10.37,2013-03-22 05:07:00,
2013-03-22 01:12:00,25.0,15.6,29.96,NW,315,0.2,1.1,67,0.00,CLR,SKC,0.00,WeatherDisplay:10.37,2013-03-22 05:12:00,
2013-03-22 01:17:00,25.2,15.7,29.96,NW,315,0.5,2.3,67,0.00,CLR,SKC,0.00,WeatherDisplay:10.37,2013-03-22 05:17:00,
2013-03-22 01:22:00,25.2,15.7,29.96,NW,315,0.2,2.3,67,0.00,CLR,SKC,0.00,WeatherDisplay:10.37,2013-03-22 05:22:00,
2013-03-22 01:27:00,25.3,15.9,29.97,NW,315,0.0,0.0,67,0.00,CLR,SKC,0.00,WeatherDisplay:10.37,2013-03-22 05:27:00,
2013-03-22 01:32:00,25.2,15.7,29.96,NW,315,0.1,1.1,67,0.00,CLR,SKC,0.00,WeatherDisplay:10.37,2013-03-22 05:32:00,
2013-03-22 01:37:00,25.2,15.7,29.96,NW,315,0.0,0.0,67,0.00,CLR,SKC,0.00,WeatherDisplay:10.37,2013-03-22 05:37:00,
2013-03-22 01:42:00,25.0,15.6,29.96,NW,315,0.2,1.1,67,0.00,CLR,SKC,0.00,WeatherDisplay:10.37,2013-03-22 05:42:00,
2013-03-22 01:47:00,25.0,15.9,29.96,NW,315,0.0,0.0,68,0.00,CLR,SKC,0.00,WeatherDisplay:10.37,2013-03-22 05:47:00,
2013-03-22 01:52:00,24.6,15.6,29.97,NW,315,0.3,1.1,68,0.00,CLR,SKC,0.00,WeatherDisplay:10.37,2013-03-22 05:52:00,
2013-03-22 01:57:00,24.6,15.6,29.97,NW,315,0.5,2.3,68,0.00,CLR,SKC,0.00,WeatherDisplay:10.37,2013-03-22 05:57:00,
2013-03-22 02:02:00,24.6,15.6,29.97,NW,315,0.0,0.0,68,0.00,CLR,SKC,0.00,WeatherDisplay:10.37,2013-03-22 06:02:00,
2013-03-22 02:07:00,24.6,15.6,29.97,NW,315,0.0,0.0,68,0.00,CLR,SKC,0.00,WeatherDisplay:10.37,2013-03-22 06:07:00,
2013-03-22 02:12:00,24.6,15.6,29.97,NW,315,0.5,1.1,68,0.00,CLR,SKC,0.00,WeatherDisplay:10.37,2013-03-22 06:12:00,
2013-03-22 02:17:00,24.6,15.6,29.97,NW,315,0.0,0.0,68,0.00,CLR,SKC,0.00,WeatherDisplay:10.37,2013-03-22 06:17:00,
2013-03-22 02:22:00,24.4,15.4,29.97,NW,315,0.0,0.0,68,0.00,CLR,SKC,0.00,WeatherDisplay:10.37,2013-03-22 06:22:00,
2013-03-22 02:27:00,24.4,15.7,29.97,NW,315,0.1,1.6,69,0.00,CLR,SKC,0.00,WeatherDisplay:10.37,2013-03-22 06:27:00,
2013-03-22 02:32:00,24.6,15.9,29.97,NW,315,0.0,0.0,69,0.00,CLR,SKC,0.00,WeatherDisplay:10.37,2013-03-22 06:32:00,
2013-03-22 02:37:00,24.6,15.9,29.96,NW,315,0.6,1.3,69,0.00,CLR,SKC,0.00,WeatherDisplay:10.37,2013-03-22 06:37:00,
2013-03-22 02:43:00,24.6,15.9,29.97,NW,315,0.0,1.1,69,0.00,CLR,SKC,0.00,WeatherDisplay:10.37,2013-03-22 06:43:00,
2013-03-22 02:48:00,24.6,15.9,29.96,NW,315,0.0,0.0,69,0.00,CLR,SKC,0.00,WeatherDisplay:10.37,2013-03-22 06:48:00,
2013-03-22 02:53:00,24.4,15.7,29.97,NW,315,0.0,0.0,69,0.00,CLR,SKC,0.00,WeatherDisplay:10.37,2013-03-22 06:53:00,
2013-03-22 02:58:00,24.4,15.7,29.96,NW,315,0.0,0.0,69,0.00,CLR,SKC,0.00,WeatherDisplay:10.37,2013-03-22 06:58:00,
2013-03-22 03:03:00,24.3,15.5,29.96,NW,315,0.0,0.0,69,0.00,CLR,SKC,0.00,WeatherDisplay:10.37,2013-03-22 07:03:00,
2013-03-22 03:08:00,24.1,15.4,29.97,NW,315,0.0,0.0,69,0.00,CLR,SKC,0.00,WeatherDisplay:10.37,2013-03-22 07:08:00,
2013-03-22 03:13:00,24.1,15.4,29.96,NW,315,0.0,0.0,69,0.00,CLR,SKC,0.00,WeatherDisplay:10.37,2013-03-22 07:13:00,
2013-03-22 03:18:00,23.9,15.5,29.97,NW,315,0.0,0.0,70,0.00,CLR,SKC,0.00,WeatherDisplay:10.37,2013-03-22 07:18:00,
2013-03-22 03:23:00,23.7,15.4,29.96,NW,315,0.0,0.0,70,0.00,CLR,SKC,0.00,WeatherDisplay:10.37,2013-03-22 07:23:00,
2013-03-22 03:28:00,23.5,15.2,29.96,NW,315,0.0,0.0,70,0.00,CLR,SKC,0.00,WeatherDisplay:10.37,2013-03-22 07:28:00,
2013-03-22 03:33:00,23.4,15.0,29.96,NW,315,0.0,0.0,70,0.00,CLR,SKC,0.00,WeatherDisplay:10.37,2013-03-22 07:33:00,
2013-03-22 03:38:00,23.2,14.8,29.96,NW,315,0.0,0.0,70,0.00,CLR,SKC,0.00,WeatherDisplay:10.37,2013-03-22 07:38:00,
2013-03-22 03:43:00,23.2,15.2,29.97,NW,315,0.0,0.0,71,0.00,CLR,SKC,0.00,WeatherDisplay:10.37,2013-03-22 07:43:00,
2013-03-22 03:48:00,22.8,14.8,29.97,NW,315,0.0,0.0,71,0.00,CLR,SKC,0.00,WeatherDisplay:10.37,2013-03-22 07:48:00,
2013-03-22 03:53:00,22.8,14.8,29.97,NW,315,0.0,0.0,71,0.00,CLR,SKC,0.00,WeatherDisplay:10.37,2013-03-22 07:53:00,
2013-03-22 03:58:00,22.6,14.6,29.97,NW,315,0.0,0.0,71,0.00,CLR,SKC,0.00,WeatherDisplay:10.37,2013-03-22 07:58:00,
2013-03-22 04:03:00,22.6,14.6,29.97,NW,315,0.2,1.1,71,0.00,CLR,SKC,0.00,WeatherDisplay:10.37,2013-03-22 08:03:00,
2013-03-22 04:08:00,22.3,14.3,29.97,NW,315,1.1,1.1,71,0.00,CLR,SKC,0.00,WeatherDisplay:10.37,2013-03-22 08:08:00,
2013-03-22 04:13:00,22.3,14.3,29.97,NW,315,1.0,1.1,71,0.00,CLR,SKC,0.00,WeatherDisplay:10.37,2013-03-22 08:13:00,
2013-03-22 04:18:00,22.1,14.4,29.96,NW,315,0.7,1.1,72,0.00,CLR,SKC,0.00,WeatherDisplay:10.37,2013-03-22 08:18:00,
2013-03-22 04:23:00,21.9,14.3,29.96,NW,315,0.4,1.3,72,0.00,CLR,SKC,0.00,WeatherDisplay:10.37,2013-03-22 08:23:00,
2013-03-22 04:28:00,21.7,14.1,29.95,NW,315,0.0,1.1,72,0.00,CLR,SKC,0.00,WeatherDisplay:10.37,2013-03-22 08:28:00,
2013-03-22 04:33:00,21.7,14.4,29.95,NW,315,0.0,0.0,73,0.00,CLR,SKC,0.00,WeatherDisplay:10.37,2013-03-22 08:33:00,
2013-03-22 04:38:00,21.6,14.2,29.95,NW,315,0.0,0.0,73,0.00,CLR,SKC,0.00,WeatherDisplay:10.37,2013-03-22 08:38:00,
2013-03-22 04:43:00,21.4,14.1,29.95,NW,315,0.6,1.1,73,0.00,CLR,SKC,0.00,WeatherDisplay:10.37,2013-03-22 08:43:00,
2013-03-22 04:48:00,21.4,14.1,29.95,NW,315,1.0,2.0,73,0.00,CLR,SKC,0.00,WeatherDisplay:10.37,2013-03-22 08:48:00,
2013-03-22 04:53:00,21.4,14.4,29.95,NW,315,1.4,2.3,74,0.00,CLR,SKC,0.00,WeatherDisplay:10.37,2013-03-22 08:53:00,
2013-03-22 04:58:00,21.0,14.0,29.95,NW,315,0.0,0.0,74,0.00,CLR,SKC,0.00,WeatherDisplay:10.37,2013-03-22 08:58:00,
2013-03-22 05:03:00,21.0,14.0,29.95,NW,315,0.0,0.0,74,0.00,CLR,SKC,0.00,WeatherDisplay:10.37,2013-03-22 09:03:00,
2013-03-22 05:08:00,21.0,14.3,29.95,NW,315,1.0,2.3,75,0.00,CLR,SKC,0.00,WeatherDisplay:10.37,2013-03-22 09:08:00,
2013-03-22 05:13:00,21.0,14.3,29.95,NW,315,0.0,0.0,75,0.00,CLR,SKC,0.00,WeatherDisplay:10.37,2013-03-22 09:13:00,
2013-03-22 05:18:00,20.8,14.2,29.95,NW,315,0.9,1.1,75,0.00,CLR,SKC,0.00,WeatherDisplay:10.37,2013-03-22 09:18:00,
2013-03-22 05:23:00,20.8,14.2,29.95,NW,315,0.0,0.0,75,0.00,CLR,SKC,0.00,WeatherDisplay:10.37,2013-03-22 09:23:00,
2013-03-22 05:28:00,20.8,14.2,29.95,NW,315,0.0,0.0,75,0.00,CLR,SKC,0.00,WeatherDisplay:10.37,2013-03-22 09:28:00,
2013-03-22 05:33:00,20.8,14.2,29.95,NW,315,0.0,0.0,75,0.00,CLR,SKC,0.00,WeatherDisplay:10.37,2013-03-22 09:33:00,
2013-03-22 05:38:00,20.5,14.1,29.95,NW,315,0.0,0.0,76,0.00,CLR,SKC,0.00,WeatherDisplay:10.37,2013-03-22 09:38:00,
2013-03-22 05:43:00,20.5,14.1,29.95,NW,315,0.0,0.0,76,0.00,CLR,SKC,0.00,WeatherDisplay:10.37,2013-03-22 09:43:00,
2013-03-22 05:48:00,20.5,14.1,29.95,NW,315,0.0,0.0,76,0.00,CLR,SKC,0.00,WeatherDisplay:10.37,2013-03-22 09:48:00,
2013-03-22 05:53:00,20.5,14.1,29.95,NW,315,0.0,0.0,76,0.00,CLR,SKC,0.00,WeatherDisplay:10.37,2013-03-22 09:53:00,
2013-03-22 05:58:00,20.5,14.1,29.95,NW,315,0.0,0.0,76,0.00,CLR,SKC,0.00,WeatherDisplay:10.37,2013-03-22 09:58:00,
2013-03-22 06:03:00,20.5,14.1,29.95,NW,315,0.0,0.0,76,0.00,CLR,SKC,0.00,WeatherDisplay:10.37,2013-03-22 10:03:00,
2013-03-22 06:08:00,20.5,14.1,29.95,NW,315,0.0,0.0,76,0.00,CLR,SKC,0.00,WeatherDisplay:10.37,2013-03-22 10:08:00,
2013-03-22 06:13:00,20.5,14.1,29.95,NW,315,0.0,0.0,76,0.00,CLR,SKC,0.00,WeatherDisplay:10.37,2013-03-22 10:13:00,
2013-03-22 06:18:00,20.5,14.4,29.95,NW,315,0.0,0.0,77,0.00,CLR,SKC,0.00,WeatherDisplay:10.37,2013-03-22 10:18:00,
2013-03-22 06:23:00,20.5,14.4,29.95,NW,315,0.0,0.0,77,0.00,CLR,SKC,0.00,WeatherDisplay:10.37,2013-03-22 10:23:00,
2013-03-22 06:28:00,20.5,14.4,29.95,NW,315,0.0,0.0,77,0.00,CLR,SKC,0.00,WeatherDisplay:10.37,2013-03-22 10:28:00,
2013-03-22 06:33:00,20.5,14.4,29.95,NW,315,0.0,0.0,77,0.00,CLR,SKC,0.00,WeatherDisplay:10.37,2013-03-22 10:33:00,
2013-03-22 06:38:00,20.5,14.4,29.95,NW,315,0.0,0.0,77,0.00,CLR,SKC,0.00,WeatherDisplay:10.37,2013-03-22 10:38:00,
2013-03-22 06:43:00,20.5,14.4,29.95,NW,315,0.0,0.0,77,0.00,CLR,SKC,0.00,WeatherDisplay:10.37,2013-03-22 10:43:00,
2013-03-22 06:48:00,20.5,14.4,29.95,NW,315,0.0,0.0,77,0.00,CLR,SKC,0.00,WeatherDisplay:10.37,2013-03-22 10:48:00,
2013-03-22 06:53:00,20.3,14.2,29.96,NW,315,1.5,2.3,77,0.00,CLR,SKC,0.00,WeatherDisplay:10.37,2013-03-22 10:53:00,
2013-03-22 06:58:00,20.3,14.2,29.96,NW,315,0.2,1.1,77,0.00,CLR,SKC,0.00,WeatherDisplay:10.37,2013-03-22 10:58:00,
2013-03-22 07:03:00,20.3,14.2,29.96,NW,315,1.4,2.3,77,0.00,CLR,SKC,0.00,WeatherDisplay:10.37,2013-03-22 11:03:00,
2013-03-22 07:08:00,20.1,14.1,29.96,NW,315,1.7,5.8,77,0.00,CLR,SKC,0.00,WeatherDisplay:10.37,2013-03-22 11:08:00,
2013-03-22 07:13:00,20.1,14.1,29.96,NW,315,1.3,1.6,77,0.00,CLR,SKC,0.00,WeatherDisplay:10.37,2013-03-22 11:13:00,
2013-03-22 07:18:00,20.1,14.1,29.97,NW,315,0.8,2.3,77,0.00,CLR,SKC,0.00,WeatherDisplay:10.37,2013-03-22 11:18:00,
2013-03-22 07:23:00,19.9,13.9,29.97,NW,315,0.0,0.0,77,0.00,CLR,SKC,0.00,WeatherDisplay:10.37,2013-03-22 11:23:00,
2013-03-22 07:28:00,19.9,13.9,29.97,NW,315,1.4,2.3,77,0.00,CLR,SKC,0.00,WeatherDisplay:10.37,2013-03-22 11:28:00,
2013-03-22 07:33:00,19.9,14.2,29.97,NW,315,2.1,2.3,78,0.00,CLR,SKC,0.00,WeatherDisplay:10.37,2013-03-22 11:33:00,
2013-03-22 07:38:00,19.8,14.0,29.97,NW,315,1.9,3.5,78,0.00,CLR,SKC,0.00,WeatherDisplay:10.37,2013-03-22 11:38:00,
2013-03-22 07:43:00,19.8,14.0,29.97,NW,315,1.2,2.3,78,0.00,CLR,SKC,0.00,WeatherDisplay:10.37,2013-03-22 11:43:00,
2013-03-22 07:48:00,19.9,14.2,29.97,NW,315,0.1,1.1,78,0.00,CLR,SKC,0.00,WeatherDisplay:10.37,2013-03-22 11:48:00,
2013-03-22 07:53:00,19.9,14.2,29.96,NW,315,0.8,1.1,78,0.00,CLR,SKC,0.00,WeatherDisplay:10.37,2013-03-22 11:53:00,
2013-03-22 07:58:00,19.9,14.2,29.96,NW,315,0.0,1.1,78,0.00,CLR,SKC,0.00,WeatherDisplay:10.37,2013-03-22 11:58:00,
2013-03-22 08:03:00,19.9,14.5,29.96,NW,315,0.5,1.1,79,0.00,CLR,SKC,0.00,WeatherDisplay:10.37,2013-03-22 12:03:00,
2013-03-22 08:08:00,19.9,14.5,29.95,NW,315,0.2,1.1,79,0.00,CLR,SKC,0.00,WeatherDisplay:10.37,2013-03-22 12:08:00,
2013-03-22 08:13:00,20.1,14.7,29.96,NW,315,1.6,2.3,79,0.00,CLR,SKC,0.00,WeatherDisplay:10.37,2013-03-22 12:13:00,
2013-03-22 08:18:00,20.3,14.8,29.95,NW,315,0.0,1.1,79,0.00,CLR,SKC,0.00,WeatherDisplay:10.37,2013-03-22 12:18:00,
2013-03-22 08:23:00,20.5,15.0,29.95,NW,315,1.3,2.3,79,0.00,CLR,SKC,0.00,WeatherDisplay:10.37,2013-03-22 12:23:00,
2013-03-22 08:28:00,20.8,15.4,29.95,NW,315,1.3,2.3,79,0.00,CLR,SKC,0.00,WeatherDisplay:10.37,2013-03-22 12:28:00,
2013-03-22 08:33:00,21.2,15.7,29.96,NW,315,2.4,3.5,79,0.00,CLR,SKC,0.00,WeatherDisplay:10.37,2013-03-22 12:33:00,
2013-03-22 08:38:00,21.4,15.9,29.96,NW,315,1.0,3.5,79,0.00,CLR,SKC,0.00,WeatherDisplay:10.37,2013-03-22 12:38:00,
2013-03-22 08:43:00,21.7,16.2,29.95,NW,315,1.2,2.3,79,0.00,CLR,SKC,0.00,WeatherDisplay:10.37,2013-03-22 12:43:00,
2013-03-22 08:48:00,21.7,16.2,29.96,NW,315,2.0,2.3,79,0.00,CLR,SKC,0.00,WeatherDisplay:10.37,2013-03-22 12:48:00,
2013-03-22 08:53:00,22.1,16.6,29.96,NW,315,1.9,3.5,79,0.00,CLR,SKC,0.00,WeatherDisplay:10.37,2013-03-22 12:53:00,
2013-03-22 08:58:00,22.3,16.8,29.96,West,270,2.5,3.5,79,0.00,CLR,SKC,0.00,WeatherDisplay:10.37,2013-03-22 12:58:00,
2013-03-22 09:03:00,22.6,17.1,29.96,WSW,248,0.2,2.3,79,0.00,CLR,SKC,0.00,WeatherDisplay:10.37,2013-03-22 13:03:00,
2013-03-22 09:08:00,23.2,17.6,29.96,WSW,248,2.5,3.5,79,0.00,CLR,SKC,0.00,WeatherDisplay:10.37,2013-03-22 13:08:00,
2013-03-22 09:13:00,23.7,18.5,29.97,WSW,248,1.2,3.5,80,0.00,CLR,SKC,0.00,WeatherDisplay:10.37,2013-03-22 13:13:00,
2013-03-22 09:18:00,24.4,19.2,29.97,WSW,248,0.7,2.3,80,0.00,CLR,SKC,0.00,WeatherDisplay:10.37,2013-03-22 13:18:00,
2013-03-22 09:23:00,25.0,19.7,29.97,WSW,248,1.3,3.5,80,0.00,CLR,SKC,0.00,WeatherDisplay:10.37,2013-03-22 13:23:00,
2013-03-22 09:28:00,25.7,20.1,29.97,WSW,248,0.8,1.3,79,0.00,CLR,SKC,0.00,WeatherDisplay:10.37,2013-03-22 13:28:00,
2013-03-22 09:33:00,26.4,20.8,29.97,WSW,248,0.3,3.5,79,0.00,CLR,SKC,0.00,WeatherDisplay:10.37,2013-03-22 13:33:00,
2013-03-22 09:38:00,27.1,21.2,29.97,WSW,248,0.1,2.3,78,0.00,CLR,SKC,0.00,WeatherDisplay:10.37,2013-03-22 13:38:00,
2013-03-22 09:43:00,27.7,21.4,29.97,WSW,248,0.0,0.0,77,0.00,CLR,SKC,0.00,WeatherDisplay:10.37,2013-03-22 13:43:00,
2013-03-22 09:48:00,28.2,21.9,29.97,WSW,248,0.9,1.3,77,0.00,CLR,SKC,0.00,WeatherDisplay:10.37,2013-03-22 13:48:00,
2013-03-22 09:53:00,29.1,22.2,29.97,WSW,248,0.0,0.0,75,0.00,CLR,SKC,0.00,WeatherDisplay:10.37,2013-03-22 13:53:00,
2013-03-22 09:58:00,29.7,22.4,29.97,WSW,248,3.3,4.6,74,0.00,CLR,SKC,0.00,WeatherDisplay:10.37,2013-03-22 13:58:00,
2013-03-22 10:03:00,30.2,22.3,29.97,WSW,248,0.6,2.3,72,0.00,CLR,SKC,0.00,WeatherDisplay:10.37,2013-03-22 14:03:00,
2013-03-22 10:08:00,30.7,22.4,29.98,WSW,248,3.3,3.5,71,0.00,CLR,SKC,0.00,WeatherDisplay:10.37,2013-03-22 14:08:00,
2013-03-22 10:13:00,31.3,22.6,29.98,WSW,248,2.6,3.5,70,0.00,CLR,SKC,0.00,WeatherDisplay:10.37,2013-03-22 14:13:00,
2013-03-22 10:18:00,31.8,22.8,29.97,WSW,248,0.5,3.5,69,0.00,CLR,SKC,0.00,WeatherDisplay:10.37,2013-03-22 14:18:00,
2013-03-22 10:23:00,32.2,22.4,29.97,WSW,248,3.3,4.6,67,0.00,CLR,SKC,0.00,WeatherDisplay:10.37,2013-03-22 14:23:00,
2013-03-22 10:28:00,32.7,22.6,29.97,West,270,1.4,4.7,66,0.00,CLR,SKC,0.00,WeatherDisplay:10.37,2013-03-22 14:28:00,
2013-03-22 10:33:00,33.1,22.6,29.98,West,270,3.7,4.5,65,0.00,CLR,SKC,0.00,WeatherDisplay:10.37,2013-03-22 14:33:00,
2013-03-22 10:38:00,33.6,22.4,29.98,WSW,248,1.3,3.5,63,0.00,CLR,SKC,0.00,WeatherDisplay:10.37,2013-03-22 14:38:00,
2013-03-22 10:43:00,34.2,22.9,29.97,WSW,248,2.3,4.6,63,0.00,CLR,SKC,0.00,WeatherDisplay:10.37,2013-03-22 14:43:00,
2013-03-22 10:48:00,34.5,22.8,29.98,SW,225,2.4,5.8,62,0.00,CLR,SKC,0.00,WeatherDisplay:10.37,2013-03-22 14:48:00,
2013-03-22 10:53:00,34.9,22.8,29.98,NW,315,0.4,3.5,61,0.00,CLR,SKC,0.00,WeatherDisplay:10.37,2013-03-22 14:53:00,
2013-03-22 10:58:00,35.4,22.5,29.98,WNW,292,1.1,3.5,59,0.00,CLR,SKC,0.00,WeatherDisplay:10.37,2013-03-22 14:58:00,
2013-03-22 11:03:00,35.8,22.4,29.98,WNW,292,2.6,4.6,58,0.00,CLR,SKC,0.00,WeatherDisplay:10.37,2013-03-22 15:03:00,
2013-03-22 11:08:00,36.0,22.2,29.97,West,270,2.0,4.5,57,0.00,CLR,SKC,0.00,WeatherDisplay:10.37,2013-03-22 15:08:00,
2013-03-22 11:13:00,36.1,21.9,29.98,WNW,292,5.0,5.8,56,0.00,CLR,SKC,0.00,WeatherDisplay:10.37,2013-03-22 15:13:00,
2013-03-22 11:18:00,36.5,22.3,29.98,NW,315,3.6,5.8,56,0.00,CLR,SKC,0.00,WeatherDisplay:10.37,2013-03-22 15:18:00,
2013-03-22 11:23:00,36.9,22.6,29.99,West,270,2.2,6.9,56,0.00,CLR,SKC,0.00,WeatherDisplay:10.37,2013-03-22 15:23:00,
2013-03-22 11:28:00,37.2,22.5,29.98,West,270,3.7,5.8,55,0.00,CLR,SKC,0.00,WeatherDisplay:10.37,2013-03-22 15:28:00,
2013-03-22 11:33:00,37.6,22.9,29.99,SW,225,1.9,6.9,55,0.00,CLR,SKC,0.00,WeatherDisplay:10.37,2013-03-22 15:33:00,
2013-03-22 11:38:00,37.9,23.2,29.99,SSW,202,5.9,14.1,55,0.00,CLR,SKC,0.00,WeatherDisplay:10.37,2013-03-22 15:38:00,
2013-03-22 11:43:00,38.5,23.3,29.99,North,0,5.5,6.9,54,0.00,CLR,SKC,0.00,WeatherDisplay:10.37,2013-03-22 15:43:00,
2013-03-22 11:48:00,38.5,22.8,29.99,WNW,292,6.6,10.4,53,0.00,CLR,SKC,0.00,WeatherDisplay:10.37,2013-03-22 15:48:00,
2013-03-22 11:53:00,38.5,22.8,29.99,WNW,292,4.8,17.3,53,0.00,CLR,SKC,0.00,WeatherDisplay:10.37,2013-03-22 15:53:00,
2013-03-22 11:58:00,38.8,23.2,29.99,WNW,292,2.8,5.8,53,0.00,CLR,SKC,0.00,WeatherDisplay:10.37,2013-03-22 15:58:00,
2013-03-22 12:03:00,38.8,22.7,30.00,West,270,5.3,6.9,52,0.00,CLR,SKC,0.00,WeatherDisplay:10.37,2013-03-22 16:03:00,
2013-03-22 12:08:00,39.0,22.9,30.00,NW,315,3.2,3.5,52,0.00,CLR,SKC,0.00,WeatherDisplay:10.37,2013-03-22 16:08:00,
2013-03-22 12:13:00,38.8,22.2,29.99,NW,315,3.1,3.5,51,0.00,CLR,SKC,0.00,WeatherDisplay:10.37,2013-03-22 16:13:00,
2013-03-22 12:18:00,38.8,22.2,30.00,NNW,338,1.9,4.6,51,0.00,CLR,SKC,0.00,WeatherDisplay:10.37,2013-03-22 16:18:00,
2013-03-22 12:23:00,39.2,22.6,30.00,WSW,248,4.8,9.8,51,0.00,CLR,SKC,0.00,WeatherDisplay:10.37,2013-03-22 16:23:00,
2013-03-22 12:28:00,39.9,23.7,29.99,WSW,248,5.3,11.5,52,0.00,CLR,SKC,0.00,WeatherDisplay:10.37,2013-03-22 16:28:00,
2013-03-22 12:33:00,40.1,23.4,29.99,WNW,292,2.3,6.0,51,0.00,CLR,SKC,0.00,WeatherDisplay:10.37,2013-03-22 16:33:00,
2013-03-22 12:38:00,40.3,22.6,30.00,West,270,4.3,6.9,49,0.00,CLR,SKC,0.00,WeatherDisplay:10.37,2013-03-22 16:38:00,
2013-03-22 12:43:00,40.3,22.6,29.99,SSW,202,3.8,5.8,49,0.00,CLR,SKC,0.00,WeatherDisplay:10.37,2013-03-22 16:43:00,
2013-03-22 12:48:00,40.6,23.4,29.99,WSW,248,8.8,10.4,50,0.00,CLR,SKC,0.00,WeatherDisplay:10.37,2013-03-22 16:48:00,
2013-03-22 12:53:00,40.8,22.6,29.99,WNW,292,2.9,4.6,48,0.00,CLR,SKC,0.00,WeatherDisplay:10.37,2013-03-22 16:53:00,
2013-03-22 12:58:00,40.8,22.6,29.99,WSW,248,5.5,10.4,48,0.00,CLR,SKC,0.00,WeatherDisplay:10.37,2013-03-22 16:58:00,
2013-03-22 13:03:00,40.8,22.1,29.99,SW,225,4.6,10.4,47,0.00,CLR,SKC,0.00,WeatherDisplay:10.37,2013-03-22 17:03:00,
2013-03-22 13:08:00,40.3,22.1,29.98,WNW,292,3.3,5.8,48,0.00,CLR,SKC,0.00,WeatherDisplay:10.37,2013-03-22 17:08:00,
2013-03-22 13:13:00,40.5,22.3,29.99,West,270,4.5,11.5,48,0.00,CLR,SKC,0.00,WeatherDisplay:10.37,2013-03-22 17:13:00,
2013-03-22 13:18:00,40.6,22.5,29.99,WNW,292,5.3,8.1,48,0.00,CLR,SKC,0.00,WeatherDisplay:10.37,2013-03-22 17:18:00,
2013-03-22 13:23:00,40.8,22.6,29.98,WNW,292,3.3,5.8,48,0.00,CLR,SKC,0.00,WeatherDisplay:10.37,2013-03-22 17:23:00,
2013-03-22 13:28:00,41.4,22.6,29.98,NW,315,5.2,5.8,47,0.00,CLR,SKC,0.00,WeatherDisplay:10.37,2013-03-22 17:28:00,
2013-03-22 13:33:00,41.5,22.8,29.99,West,270,4.9,4.9,47,0.00,CLR,SKC,0.00,WeatherDisplay:10.37,2013-03-22 17:33:00,
2013-03-22 13:38:00,41.7,22.9,29.98,West,270,2.7,6.9,47,0.00,CLR,SKC,0.00,WeatherDisplay:10.37,2013-03-22 17:38:00,
2013-03-22 13:43:00,41.9,23.1,29.98,West,270,6.5,10.4,47,0.00,CLR,SKC,0.00,WeatherDisplay:10.37,2013-03-22 17:43:00,
2013-03-22 13:48:00,41.9,23.1,29.98,SW,225,2.5,4.6,47,0.00,CLR,SKC,0.00,WeatherDisplay:10.37,2013-03-22 17:48:00,
2013-03-22 13:53:00,42.1,22.8,29.97,NW,315,2.2,2.3,46,0.00,CLR,SKC,0.00,WeatherDisplay:10.37,2013-03-22 17:53:00,
2013-03-22 13:58:00,42.1,22.8,29.98,SSW,202,3.9,8.1,46,0.00,CLR,SKC,0.00,WeatherDisplay:10.37,2013-03-22 17:58:00,
2013-03-22 14:03:00,42.4,23.6,29.97,West,270,3.4,3.5,47,0.00,CLR,SKC,0.00,WeatherDisplay:10.37,2013-03-22 18:03:00,
2013-03-22 14:08:00,42.6,23.3,29.97,WNW,292,4.3,8.1,46,0.00,CLR,SKC,0.00,WeatherDisplay:10.37,2013-03-22 18:08:00,
2013-03-22 14:13:00,42.6,23.3,29.97,West,270,3.8,8.1,46,0.00,CLR,SKC,0.00,WeatherDisplay:10.37,2013-03-22 18:13:00,
2013-03-22 14:18:00,42.6,23.3,29.97,WSW,248,2.1,8.1,46,0.00,CLR,SKC,0.00,WeatherDisplay:10.37,2013-03-22 18:18:00,
2013-03-22 14:23:00,42.8,23.4,29.97,SW,225,4.0,9.6,46,0.00,CLR,SKC,0.00,WeatherDisplay:10.37,2013-03-22 18:23:00,
2013-03-22 14:28:00,43.0,23.1,29.97,SW,225,3.4,8.1,45,0.00,CLR,SKC,0.00,WeatherDisplay:10.37,2013-03-22 18:28:00,
2013-03-22 14:33:00,43.0,23.1,29.97,WSW,248,4.8,8.1,45,0.00,CLR,SKC,0.00,WeatherDisplay:10.37,2013-03-22 18:33:00,
2013-03-22 14:38:00,43.2,23.2,29.97,West,270,6.2,8.1,45,0.00,CLR,SKC,0.00,WeatherDisplay:10.37,2013-03-22 18:38:00,
2013-03-22 14:43:00,43.3,23.4,29.96,WNW,292,3.7,4.7,45,0.00,CLR,SKC,0.00,WeatherDisplay:10.37,2013-03-22 18:43:00,
2013-03-22 14:48:00,43.5,23.6,29.96,WNW,292,6.0,8.9,45,0.00,CLR,SKC,0.00,WeatherDisplay:10.37,2013-03-22 18:48:00,
2013-03-22 14:53:00,43.5,23.6,29.96,West,270,3.3,6.7,45,0.00,CLR,SKC,0.00,WeatherDisplay:10.37,2013-03-22 18:53:00,
2013-03-22 14:58:00,43.7,23.7,29.96,WNW,292,7.4,11.5,45,0.00,CLR,SKC,0.00,WeatherDisplay:10.37,2013-03-22 18:58:00,
2013-03-22 15:03:00,43.7,23.2,29.96,WNW,292,2.7,4.6,44,0.00,CLR,SKC,0.00,WeatherDisplay:10.37,2013-03-22 19:03:00,
2013-03-22 15:08:00,43.7,23.7,29.95,WSW,248,5.3,9.6,45,0.00,CLR,SKC,0.00,WeatherDisplay:10.37,2013-03-22 19:08:00,
2013-03-22 15:13:00,43.9,23.4,29.95,WSW,248,2.6,8.1,44,0.00,CLR,SKC,0.00,WeatherDisplay:10.37,2013-03-22 19:13:00,
2013-03-22 15:18:00,44.2,23.7,29.94,West,270,3.6,6.9,44,0.00,CLR,SKC,0.00,WeatherDisplay:10.37,2013-03-22 19:18:00,
2013-03-22 15:23:00,44.1,23.5,29.93,NNW,338,4.2,4.2,44,0.00,CLR,SKC,0.00,WeatherDisplay:10.37,2013-03-22 19:23:00,
2013-03-22 15:28:00,44.2,23.1,29.93,NNW,338,3.2,4.6,43,0.00,CLR,SKC,0.00,WeatherDisplay:10.37,2013-03-22 19:28:00,
2013-03-22 15:33:00,44.2,23.7,29.92,SSW,202,3.7,9.2,44,0.00,CLR,SKC,0.00,WeatherDisplay:10.37,2013-03-22 19:33:00,
2013-03-22 15:38:00,44.4,23.3,29.92,NNE,22,1.2,2.7,43,0.00,CLR,SKC,0.00,WeatherDisplay:10.37,2013-03-22 19:38:00,
2013-03-22 15:43:00,44.4,23.3,29.92,West,270,3.0,5.8,43,0.00,CLR,SKC,0.00,WeatherDisplay:10.37,2013-03-22 19:43:00,
2013-03-22 15:48:00,44.6,24.0,29.91,WSW,248,2.6,9.4,44,0.00,CLR,SKC,0.00,WeatherDisplay:10.37,2013-03-22 19:48:00,
2013-03-22 15:53:00,45.1,23.9,29.91,West,270,5.2,8.1,43,0.00,CLR,SKC,0.00,WeatherDisplay:10.37,2013-03-22 19:53:00,
2013-03-22 15:58:00,45.1,23.4,29.91,WSW,248,5.8,8.1,42,0.00,CLR,SKC,0.00,WeatherDisplay:10.37,2013-03-22 19:58:00,
2013-03-22 16:03:00,45.0,23.2,29.91,SW,225,4.3,6.9,42,0.00,CLR,SKC,0.00,WeatherDisplay:10.37,2013-03-22 20:03:00,
2013-03-22 16:08:00,44.8,23.1,29.92,West,270,3.0,9.8,42,0.00,CLR,SKC,0.00,WeatherDisplay:10.37,2013-03-22 20:08:00,
2013-03-22 16:13:00,44.8,23.1,29.92,NW,315,2.7,6.9,42,0.00,CLR,SKC,0.00,WeatherDisplay:10.37,2013-03-22 20:13:00,
2013-03-22 16:18:00,44.8,23.1,29.91,West,270,2.4,3.5,42,0.00,CLR,SKC,0.00,WeatherDisplay:10.37,2013-03-22 20:18:00,
2013-03-22 16:23:00,45.0,23.2,29.91,NNW,338,1.6,6.9,42,0.00,CLR,SKC,0.00,WeatherDisplay:10.37,2013-03-22 20:23:00,
2013-03-22 16:28:00,45.0,23.2,29.91,WNW,292,3.0,3.5,42,0.00,CLR,SKC,0.00,WeatherDisplay:10.37,2013-03-22 20:28:00,
2013-03-22 16:33:00,44.8,22.5,29.90,NW,315,1.0,3.5,41,0.00,CLR,SKC,0.00,WeatherDisplay:10.37,2013-03-22 20:33:00,
2013-03-22 16:38:00,44.4,22.7,29.90,West,270,3.6,5.1,42,0.00,CLR,SKC,0.00,WeatherDisplay:10.37,2013-03-22 20:38:00,
2013-03-22 16:43:00,44.4,22.7,29.91,SW,225,0.0,2.3,42,0.00,CLR,SKC,0.00,WeatherDisplay:10.37,2013-03-22 20:43:00,
2013-03-22 16:48:00,44.6,22.9,29.91,SW,225,5.2,8.3,42,0.00,CLR,SKC,0.00,WeatherDisplay:10.37,2013-03-22 20:48:00,
2013-03-22 16:53:00,44.6,22.9,29.90,West,270,3.1,4.6,42,0.00,CLR,SKC,0.00,WeatherDisplay:10.37,2013-03-22 20:53:00,
2013-03-22 16:58:00,44.8,22.5,29.90,West,270,6.2,6.9,41,0.00,CLR,SKC,0.00,WeatherDisplay:10.37,2013-03-22 20:58:00,
2013-03-22 17:03:00,44.4,22.2,29.90,SW,225,0.8,6.9,41,0.00,CLR,SKC,0.00,WeatherDisplay:10.37,2013-03-22 21:03:00,
2013-03-22 17:08:00,44.6,22.3,29.90,NW,315,2.0,4.6,41,0.00,CLR,SKC,0.00,WeatherDisplay:10.37,2013-03-22 21:08:00,
2013-03-22 17:13:00,44.6,22.3,29.90,West,270,2.9,4.6,41,0.00,CLR,SKC,0.00,WeatherDisplay:10.37,2013-03-22 21:13:00,
2013-03-22 17:18:00,44.8,22.5,29.90,NNE,22,0.7,2.3,41,0.00,CLR,SKC,0.00,WeatherDisplay:10.37,2013-03-22 21:18:00,
2013-03-22 17:23:00,44.8,22.5,29.90,SSW,202,4.6,9.2,41,0.00,CLR,SKC,0.00,WeatherDisplay:10.37,2013-03-22 21:23:00,
2013-03-22 17:28:00,44.8,22.5,29.91,West,270,3.3,5.8,41,0.00,CLR,SKC,0.00,WeatherDisplay:10.37,2013-03-22 21:28:00,
2013-03-22 17:33:00,44.8,22.5,29.91,WNW,292,4.4,5.8,41,0.00,CLR,SKC,0.00,WeatherDisplay:10.37,2013-03-22 21:33:00,
2013-03-22 17:38:00,44.6,22.3,29.91,West,270,3.7,5.1,41,0.00,CLR,SKC,0.00,WeatherDisplay:10.37,2013-03-22 21:38:00,
2013-03-22 17:43:00,44.6,22.3,29.90,NW,315,1.2,3.5,41,0.00,CLR,SKC,0.00,WeatherDisplay:10.37,2013-03-22 21:43:00,
2013-03-22 17:48:00,44.4,22.2,29.90,WSW,248,2.3,4.6,41,0.00,CLR,SKC,0.00,WeatherDisplay:10.37,2013-03-22 21:48:00,
2013-03-22 17:53:00,44.4,22.2,29.91,WNW,292,2.0,4.6,41,0.00,CLR,SKC,0.00,WeatherDisplay:10.37,2013-03-22 21:53:00,
2013-03-22 17:58:00,44.4,22.7,29.91,WSW,248,3.6,6.9,42,0.00,CLR,SKC,0.00,WeatherDisplay:10.37,2013-03-22 21:58:00,
2013-03-22 18:03:00,44.4,22.7,29.91,WNW,292,2.5,3.5,42,0.00,CLR,SKC,0.00,WeatherDisplay:10.37,2013-03-22 22:03:00,
2013-03-22 18:08:00,44.4,22.7,29.91,West,270,1.1,4.6,42,0.00,CLR,SKC,0.00,WeatherDisplay:10.37,2013-03-22 22:08:00,
2013-03-22 18:13:00,44.2,22.6,29.91,West,270,0.9,4.0,42,0.00,CLR,SKC,0.00,WeatherDisplay:10.37,2013-03-22 22:13:00,
2013-03-22 18:18:00,44.2,22.6,29.91,West,270,5.3,8.3,42,0.00,CLR,SKC,0.00,WeatherDisplay:10.37,2013-03-22 22:18:00,
2013-03-22 18:23:00,44.1,22.4,29.91,WNW,292,4.0,4.6,42,0.00,CLR,SKC,0.00,WeatherDisplay:10.37,2013-03-22 22:23:00,
2013-03-22 18:28:00,43.7,22.1,29.91,West,270,2.0,4.6,42,0.00,CLR,SKC,0.00,WeatherDisplay:10.37,2013-03-22 22:28:00,
2013-03-22 18:33:00,43.7,22.1,29.90,WSW,248,2.3,3.8,42,0.00,CLR,SKC,0.00,WeatherDisplay:10.37,2013-03-22 22:33:00,
2013-03-22 18:38:00,43.5,21.9,29.91,West,270,4.1,6.9,42,0.00,CLR,SKC,0.00,WeatherDisplay:10.37,2013-03-22 22:38:00,
2013-03-22 18:44:00,43.5,21.9,29.91,NW,315,1.5,3.5,42,0.00,CLR,SKC,0.00,WeatherDisplay:10.37,2013-03-22 22:44:00,
2013-03-22 18:49:00,43.2,21.6,29.91,West,270,5.2,9.2,42,0.00,CLR,SKC,0.00,WeatherDisplay:10.37,2013-03-22 22:49:00,
2013-03-22 18:54:00,43.0,21.4,29.91,West,270,3.1,4.6,42,0.00,CLR,SKC,0.00,WeatherDisplay:10.37,2013-03-22 22:54:00,
2013-03-22 18:59:00,42.6,21.1,29.92,West,270,4.3,5.8,42,0.00,CLR,SKC,0.00,WeatherDisplay:10.37,2013-03-22 22:59:00,
2013-03-22 19:04:00,42.4,20.9,29.92,West,270,2.0,4.2,42,0.00,CLR,SKC,0.00,WeatherDisplay:10.37,2013-03-22 23:04:00,
2013-03-22 19:09:00,42.4,21.5,29.91,NW,315,4.7,6.9,43,0.00,CLR,SKC,0.00,WeatherDisplay:10.37,2013-03-22 23:09:00,
2013-03-22 19:14:00,42.1,21.2,29.92,West,270,4.4,5.8,43,0.00,CLR,SKC,0.00,WeatherDisplay:10.37,2013-03-22 23:14:00,
2013-03-22 19:19:00,41.9,21.0,29.92,WNW,292,4.1,5.8,43,0.00,CLR,SKC,0.00,WeatherDisplay:10.37,2013-03-22 23:19:00,
2013-03-22 19:24:00,41.5,20.7,29.92,NW,315,4.1,6.5,43,0.00,CLR,SKC,0.00,WeatherDisplay:10.37,2013-03-22 23:24:00,
2013-03-22 19:29:00,41.5,20.7,29.92,West,270,1.1,2.3,43,0.00,CLR,SKC,0.00,WeatherDisplay:10.37,2013-03-22 23:29:00,
2013-03-22 19:34:00,41.2,20.3,29.92,West,270,0.4,1.1,43,0.00,CLR,SKC,0.00,WeatherDisplay:10.37,2013-03-22 23:34:00,
2013-03-22 19:39:00,41.0,20.7,29.92,West,270,1.3,3.5,44,0.00,CLR,SKC,0.00,WeatherDisplay:10.37,2013-03-22 23:39:00,
2013-03-22 19:44:00,40.8,20.6,29.92,West,270,1.5,4.6,44,0.00,CLR,SKC,0.00,WeatherDisplay:10.37,2013-03-22 23:44:00,
2013-03-22 19:49:00,40.5,20.2,29.93,West,270,1.0,1.3,44,0.00,CLR,SKC,0.00,WeatherDisplay:10.37,2013-03-22 23:49:00,
2013-03-22 19:54:00,40.1,19.9,29.94,West,270,1.8,3.4,44,0.00,CLR,SKC,0.00,WeatherDisplay:10.37,2013-03-22 23:54:00,
2013-03-22 19:59:00,39.9,20.3,29.93,WNW,292,1.3,2.3,45,0.00,CLR,SKC,0.00,WeatherDisplay:10.37,2013-03-22 23:59:00,
2013-03-22 20:04:00,39.6,19.9,29.93,West,270,1.1,3.5,45,0.00,CLR,SKC,0.00,WeatherDisplay:10.37,2013-03-23 00:04:00,
2013-03-22 20:09:00,39.4,20.3,29.93,West,270,1.1,3.5,46,0.00,CLR,SKC,0.00,WeatherDisplay:10.37,2013-03-23 00:09:00,
2013-03-22 20:14:00,39.0,20.0,29.93,West,270,0.1,1.1,46,0.00,CLR,SKC,0.00,WeatherDisplay:10.37,2013-03-23 00:14:00,
2013-03-22 20:19:00,38.8,19.8,29.93,West,270,0.0,0.0,46,0.00,CLR,SKC,0.00,WeatherDisplay:10.37,2013-03-23 00:19:00,
2013-03-22 20:24:00,38.5,20.0,29.92,West,270,0.0,0.0,47,0.00,CLR,SKC,0.00,WeatherDisplay:10.37,2013-03-23 00:24:00,
2013-03-22 20:29:00,38.1,19.6,29.92,West,270,0.0,0.0,47,0.00,CLR,SKC,0.00,WeatherDisplay:10.37,2013-03-23 00:29:00,
2013-03-22 20:34:00,38.1,19.6,29.93,West,270,0.0,0.0,47,0.00,CLR,SKC,0.00,WeatherDisplay:10.37,2013-03-23 00:34:00,
2013-03-22 20:39:00,37.9,19.5,29.93,West,270,0.0,0.0,47,0.00,CLR,SKC,0.00,WeatherDisplay:10.37,2013-03-23 00:39:00,
2013-03-22 20:44:00,37.8,19.8,29.92,West,270,0.0,0.0,48,0.00,CLR,SKC,0.00,WeatherDisplay:10.37,2013-03-23 00:44:00,
2013-03-22 20:49:00,37.6,19.6,29.93,West,270,0.0,0.0,48,0.00,CLR,SKC,0.00,WeatherDisplay:10.37,2013-03-23 00:49:00,
2013-03-22 20:54:00,37.4,19.5,29.92,West,270,0.0,0.0,48,0.00,CLR,SKC,0.00,WeatherDisplay:10.37,2013-03-23 00:54:00,
2013-03-22 20:59:00,37.2,19.3,29.92,West,270,0.0,0.0,48,0.00,CLR,SKC,0.00,WeatherDisplay:10.37,2013-03-23 00:59:00,
2013-03-22 21:04:00,37.2,19.8,29.92,West,270,0.0,0.0,49,0.00,CLR,SKC,0.00,WeatherDisplay:10.37,2013-03-23 01:04:00,
2013-03-22 21:09:00,36.9,19.5,29.92,West,270,0.0,0.0,49,0.00,CLR,SKC,0.00,WeatherDisplay:10.37,2013-03-23 01:09:00,
2013-03-22 21:14:00,36.5,19.6,29.92,West,270,0.0,0.0,50,0.00,CLR,SKC,0.00,WeatherDisplay:10.37,2013-03-23 01:14:00,
2013-03-22 21:19:00,36.1,19.3,29.93,West,270,0.0,0.0,50,0.00,CLR,SKC,0.00,WeatherDisplay:10.37,2013-03-23 01:19:00,
2013-03-22 21:24:00,36.0,19.1,29.93,West,270,0.0,0.0,50,0.00,CLR,SKC,0.00,WeatherDisplay:10.37,2013-03-23 01:24:00,
2013-03-22 21:29:00,35.8,19.4,29.93,West,270,0.0,0.0,51,0.00,CLR,SKC,0.00,WeatherDisplay:10.37,2013-03-23 01:29:00,
2013-03-22 21:34:00,35.4,19.1,29.92,West,270,0.0,0.0,51,0.00,CLR,SKC,0.00,WeatherDisplay:10.37,2013-03-23 01:34:00,
2013-03-22 21:39:00,35.2,19.4,29.93,West,270,0.0,0.0,52,0.00,CLR,SKC,0.00,WeatherDisplay:10.37,2013-03-23 01:39:00,
2013-03-22 21:44:00,35.2,19.8,29.93,West,270,0.0,0.0,53,0.00,CLR,SKC,0.00,WeatherDisplay:10.37,2013-03-23 01:44:00,
2013-03-22 21:49:00,34.9,19.5,29.93,West,270,0.0,0.0,53,0.00,CLR,SKC,0.00,WeatherDisplay:10.37,2013-03-23 01:49:00,
2013-03-22 21:54:00,34.5,19.6,29.93,West,270,0.0,0.0,54,0.00,CLR,SKC,0.00,WeatherDisplay:10.37,2013-03-23 01:54:00,
2013-03-22 21:59:00,34.3,19.4,29.94,West,270,0.0,0.0,54,0.00,CLR,SKC,0.00,WeatherDisplay:10.37,2013-03-23 01:59:00,
2013-03-22 22:04:00,34.2,19.7,29.94,West,270,0.0,0.0,55,0.00,CLR,SKC,0.00,WeatherDisplay:10.37,2013-03-23 02:04:00,
2013-03-22 22:09:00,33.8,19.3,29.94,West,270,0.1,1.1,55,0.00,CLR,SKC,0.00,WeatherDisplay:10.37,2013-03-23 02:09:00,
2013-03-22 22:14:00,33.6,19.2,29.94,West,270,0.0,0.0,55,0.00,CLR,SKC,0.00,WeatherDisplay:10.37,2013-03-23 02:14:00,
2013-03-22 22:19:00,33.6,19.2,29.94,West,270,0.0,0.0,55,0.00,CLR,SKC,0.00,WeatherDisplay:10.37,2013-03-23 02:19:00,
2013-03-22 22:24:00,33.3,19.2,29.94,West,270,0.0,0.0,56,0.00,CLR,SKC,0.00,WeatherDisplay:10.37,2013-03-23 02:24:00,
2013-03-22 22:29:00,33.1,19.1,29.94,West,270,0.0,0.0,56,0.00,CLR,SKC,0.00,WeatherDisplay:10.37,2013-03-23 02:29:00,
2013-03-22 22:34:00,32.9,18.9,29.94,West,270,0.0,0.0,56,0.00,CLR,SKC,0.00,WeatherDisplay:10.37,2013-03-23 02:34:00,
2013-03-22 22:39:00,32.7,18.7,29.94,West,270,0.0,0.0,56,0.00,CLR,SKC,0.00,WeatherDisplay:10.37,2013-03-23 02:39:00,
2013-03-22 22:44:00,32.7,19.1,29.95,West,270,0.0,0.0,57,0.00,CLR,SKC,0.00,WeatherDisplay:10.37,2013-03-23 02:44:00,
2013-03-22 22:49:00,32.5,19.0,29.95,West,270,0.0,0.0,57,0.00,CLR,SKC,0.00,WeatherDisplay:10.37,2013-03-23 02:49:00,
2013-03-22 22:54:00,32.4,18.8,29.95,West,270,0.0,0.0,57,0.00,CLR,SKC,0.00,WeatherDisplay:10.37,2013-03-23 02:54:00,
2013-03-22 22:59:00,32.4,19.2,29.96,West,270,0.0,0.0,58,0.00,CLR,SKC,0.00,WeatherDisplay:10.37,2013-03-23 02:59:00,
2013-03-22 23:04:00,32.4,19.2,29.96,West,270,0.0,0.0,58,0.00,CLR,SKC,0.00,WeatherDisplay:10.37,2013-03-23 03:04:00,
2013-03-22 23:09:00,32.4,19.2,29.96,West,270,0.0,0.0,58,0.00,CLR,SKC,0.00,WeatherDisplay:10.37,2013-03-23 03:09:00,
2013-03-22 23:14:00,32.5,19.4,29.96,West,270,0.3,1.1,58,0.00,CLR,SKC,0.00,WeatherDisplay:10.37,2013-03-23 03:14:00,
2013-03-22 23:19:00,32.7,20.0,29.96,NNW,338,0.3,1.1,59,0.00,CLR,SKC,0.00,WeatherDisplay:10.37,2013-03-23 03:19:00,
2013-03-22 23:24:00,32.9,20.1,29.96,NE,45,0.7,0.0,59,0.00,CLR,SKC,0.00,WeatherDisplay:10.37,2013-03-23 03:24:00,
2013-03-22 23:29:00,32.9,20.5,29.96,NE,45,0.7,0.0,60,0.00,CLR,SKC,0.00,WeatherDisplay:10.37,2013-03-23 03:29:00,
2013-03-22 23:34:00,33.1,20.7,29.96,NE,45,0.0,0.0,60,0.00,CLR,SKC,0.00,WeatherDisplay:10.37,2013-03-23 03:34:00,
2013-03-22 23:39:00,33.3,20.9,29.96,NE,45,0.0,0.0,60,0.00,CLR,SKC,0.00,WeatherDisplay:10.37,2013-03-23 03:39:00,
2013-03-22 23:44:00,33.3,20.5,29.97,NE,45,0.0,0.0,59,0.00,CLR,SKC,0.00,WeatherDisplay:10.37,2013-03-23 03:44:00,
2013-03-22 23:49:00,33.3,20.5,29.97,NE,45,0.6,2.3,59,0.00,CLR,SKC,0.00,WeatherDisplay:10.37,2013-03-23 03:49:00,
2013-03-22 23:54:00,33.3,20.5,29.97,NE,45,0.0,0.0,59,0.00,CLR,SKC,0.00,WeatherDisplay:10.37,2013-03-23 03:54:00,
2013-03-22 23:59:00,33.1,20.3,29.97,NE,45,0.0,0.0,59,0.00,CLR,SKC,0.00,WeatherDisplay:10.37,2013-03-23 03:59:00,